HAO weather

Butler Co Regional Airport - Hogan Field
Hamilton, Ohio, United States

Public forecast

Using degrees Fahrenheit for public forecast. Weather courtesy of forecast.io.

Current aviation weather report (METAR) for Butler Co Regional Airport - Hogan Field

Retrieved 2020/08/07 11:53 UTC (59 minutes ago):

KHAO 071153Z AUTO 00000KT 10SM CLR 16/14 A3015 RMK AO2 SLP205 T01610144 10161 20144 53013

Closest aviation forecast (TAF) to Butler Co Regional Airport - Hogan Field

Closest forecast is Cincinnati Municipal Airport Lunken Field, 16.4 nm (30.3 km) SSE. Retrieved 2020/08/07 12:36 UTC (16 minutes ago):

TAF KLUK 071135Z 0712/0812 VRB04KT P6SM SCT070 TEMPO 0808/0812 4SM BR